createdAt,value
2022-09-12T00:01:26.851Z,16.20
2022-09-12T00:03:58.343Z,16.10
2022-09-12T00:06:45.218Z,16.10
2022-09-12T00:09:15.390Z,16.10
2022-09-12T00:11:46.251Z,16.00
2022-09-12T00:14:17.198Z,16.00
2022-09-12T00:16:44.928Z,16.00
2022-09-12T00:19:13.285Z,16.00
2022-09-12T00:21:41.913Z,15.90
2022-09-12T00:24:13.171Z,15.90
2022-09-12T00:26:40.782Z,15.90
2022-09-12T00:29:08.204Z,15.90
2022-09-12T00:31:35.639Z,15.90
2022-09-12T00:34:03.023Z,15.90
2022-09-12T00:36:32.376Z,15.80
2022-09-12T00:39:02.583Z,15.80
2022-09-12T00:41:38.256Z,15.80
2022-09-12T00:44:23.613Z,15.80
2022-09-12T00:46:55.186Z,15.80
2022-09-12T00:49:30.474Z,15.80
2022-09-12T00:52:09.972Z,15.80
2022-09-12T00:55:02.786Z,15.80
2022-09-12T00:57:43.773Z,15.80
2022-09-12T01:00:17.214Z,15.80
2022-09-12T01:03:11.462Z,15.70
2022-09-12T01:05:47.819Z,15.70
2022-09-12T01:08:15.615Z,15.70
2022-09-12T01:10:43.838Z,15.70
2022-09-12T01:13:11.478Z,15.70
2022-09-12T01:15:40.438Z,15.60
2022-09-12T01:18:34.619Z,15.60
2022-09-12T01:21:25.560Z,15.60
2022-09-12T01:24:56.337Z,15.60
2022-09-12T01:27:29.451Z,15.60
2022-09-12T01:30:14.698Z,15.60
2022-09-12T01:33:03.331Z,15.60
2022-09-12T01:36:00.819Z,15.60
2022-09-12T01:38:50.394Z,15.60
2022-09-12T01:41:50.445Z,15.60
2022-09-12T01:44:33.014Z,15.50
2022-09-12T01:47:22.413Z,15.50
2022-09-12T01:50:16.576Z,15.50
2022-09-12T01:52:50.202Z,15.50
2022-09-12T01:55:37.928Z,15.50
2022-09-12T01:58:29.250Z,15.50
2022-09-12T02:01:09.429Z,15.50
2022-09-12T02:04:21.729Z,15.50
2022-09-12T02:07:18.366Z,15.60
2022-09-12T02:10:16.100Z,15.60
2022-09-12T02:13:01.709Z,15.70
2022-09-12T02:15:39.510Z,15.70
2022-09-12T02:18:12.224Z,15.80
2022-09-12T02:20:48.249Z,15.80
2022-09-12T02:23:28.565Z,15.90
2022-09-12T02:26:02.916Z,15.90
2022-09-12T02:28:39.373Z,15.90
2022-09-12T02:31:30.985Z,16.00
2022-09-12T02:34:41.079Z,16.00
2022-09-12T02:37:26.045Z,16.00
2022-09-12T02:39:58.960Z,16.00
2022-09-12T02:42:26.303Z,16.00
2022-09-12T02:44:56.643Z,16.00
2022-09-12T02:47:35.484Z,16.00
2022-09-12T02:50:05.463Z,16.00
2022-09-12T02:52:33.109Z,16.10
2022-09-12T02:55:00.769Z,16.10
2022-09-12T02:57:28.103Z,16.10
2022-09-12T03:00:01.121Z,16.20
2022-09-12T03:03:10.116Z,16.20
2022-09-12T03:06:02.217Z,16.20
2022-09-12T03:09:00.330Z,16.30
2022-09-12T03:12:03.005Z,16.30
2022-09-12T03:14:35.808Z,16.30
2022-09-12T03:17:09.084Z,16.30
2022-09-12T03:20:01.125Z,16.40
2022-09-12T03:22:35.488Z,16.40
2022-09-12T03:25:05.842Z,16.40
2022-09-12T03:27:46.862Z,16.40
2022-09-12T03:30:14.226Z,16.40
2022-09-12T03:32:52.281Z,16.50
2022-09-12T03:35:23.385Z,16.40
2022-09-12T03:37:53.186Z,16.40
2022-09-12T03:40:20.856Z,16.30
2022-09-12T03:42:48.125Z,16.30
2022-09-12T03:45:16.691Z,16.20
2022-09-12T03:47:43.944Z,16.20
2022-09-12T03:50:11.573Z,16.10
2022-09-12T03:52:38.917Z,16.10
2022-09-12T03:55:07.050Z,16.10
2022-09-12T03:57:34.404Z,16.00
2022-09-12T04:00:02.193Z,16.00
2022-09-12T04:02:29.720Z,16.00
2022-09-12T04:04:57.089Z,16.00
2022-09-12T04:07:25.697Z,16.00
2022-09-12T04:09:53.627Z,16.00
2022-09-12T04:12:21.435Z,16.00
2022-09-12T04:14:49.463Z,15.90
2022-09-12T04:17:16.797Z,15.90
2022-09-12T04:19:44.088Z,15.90
2022-09-12T04:22:11.342Z,15.90
2022-09-12T04:24:39.088Z,15.90
2022-09-12T04:27:07.922Z,15.90
2022-09-12T04:29:36.418Z,15.90
2022-09-12T04:32:04.765Z,15.90
2022-09-12T04:34:32.638Z,16.00
2022-09-12T04:36:59.978Z,16.00
2022-09-12T04:39:27.388Z,16.00
2022-09-12T04:41:54.656Z,16.10
2022-09-12T04:44:22.254Z,16.10
2022-09-12T04:46:49.577Z,16.10
2022-09-12T04:49:18.435Z,16.10
2022-09-12T04:51:47.136Z,16.20
2022-09-12T04:54:20.949Z,16.20
2022-09-12T04:56:50.774Z,16.30
2022-09-12T04:59:20.948Z,16.40
2022-09-12T05:01:48.674Z,16.40
2022-09-12T05:04:16.217Z,16.40
2022-09-12T05:06:44.384Z,16.40
2022-09-12T05:09:14.306Z,16.40
2022-09-12T05:12:03.915Z,16.40
2022-09-12T05:14:33.042Z,16.40
2022-09-12T05:17:01.952Z,16.40
2022-09-12T05:19:30.917Z,16.40
2022-09-12T05:21:59.457Z,16.50
2022-09-12T05:24:27.062Z,16.50
2022-09-12T05:26:54.351Z,16.50
2022-09-12T05:29:22.036Z,16.50
2022-09-12T05:31:54.943Z,16.60
2022-09-12T05:34:23.378Z,16.70
2022-09-12T05:36:50.698Z,16.80
2022-09-12T05:39:18.657Z,16.80
2022-09-12T05:41:46.035Z,16.80
2022-09-12T05:44:17.963Z,16.90
2022-09-12T05:46:51.382Z,17.00
2022-09-12T05:49:18.911Z,17.10
2022-09-12T05:51:46.530Z,17.10
2022-09-12T05:54:18.181Z,17.10
2022-09-12T05:56:49.070Z,17.20
2022-09-12T05:59:23.348Z,17.30
2022-09-12T06:01:50.789Z,17.30
2022-09-12T06:04:20.445Z,17.30
2022-09-12T06:06:49.285Z,17.40
2022-09-12T06:09:17.815Z,17.50
2022-09-12T06:11:47.072Z,17.60
2022-09-12T06:14:16.879Z,17.60
2022-09-12T06:16:45.086Z,17.70
2022-09-12T06:19:30.803Z,17.70
2022-09-12T06:21:58.930Z,17.80
2022-09-12T06:24:26.216Z,17.70
2022-09-12T06:26:54.834Z,17.80
2022-09-12T06:29:23.572Z,17.90
2022-09-12T06:31:50.988Z,17.90
2022-09-12T06:34:18.488Z,17.90
2022-09-12T06:36:49.022Z,17.90
2022-09-12T06:39:20.667Z,17.90
2022-09-12T06:41:50.176Z,17.80
2022-09-12T06:44:23.156Z,17.80
2022-09-12T06:46:50.550Z,17.90
2022-09-12T06:49:19.867Z,17.80
2022-09-12T06:51:48.438Z,17.90
2022-09-12T06:54:17.245Z,18.10
2022-09-12T06:56:47.629Z,18.30
2022-09-12T06:59:14.964Z,18.50
2022-09-12T07:01:42.370Z,18.60
2022-09-12T07:04:10.451Z,18.60
2022-09-12T07:06:40.972Z,18.70
2022-09-12T07:09:13.145Z,18.80
2022-09-12T07:11:42.147Z,18.90
2022-09-12T07:14:13.391Z,19.00
2022-09-12T07:16:41.695Z,19.30
2022-09-12T07:19:13.364Z,19.40
2022-09-12T07:21:41.679Z,19.50
2022-09-12T07:24:10.978Z,19.60
2022-09-12T07:26:40.722Z,19.60
2022-09-12T07:32:02.776Z,19.80
2022-09-12T07:34:30.398Z,19.90
2022-09-12T07:36:58.716Z,19.80
2022-09-12T07:39:26.480Z,19.90
2022-09-12T07:41:53.804Z,19.90
2022-09-12T07:44:22.248Z,19.80
2022-09-12T07:46:50.827Z,19.80
2022-09-12T07:49:18.599Z,19.80
2022-09-12T07:51:46.007Z,19.80
2022-09-12T07:54:13.298Z,20.00
2022-09-12T07:56:40.935Z,20.00
2022-09-12T07:59:08.992Z,20.10
2022-09-12T08:01:36.450Z,20.10
2022-09-12T08:04:05.281Z,20.00
2022-09-12T08:06:36.319Z,20.00
2022-09-12T08:09:06.972Z,20.00
2022-09-12T08:11:35.276Z,20.00
2022-09-12T08:14:05.583Z,19.90
2022-09-12T08:16:35.789Z,19.80
2022-09-12T08:19:04.578Z,19.70
2022-09-12T08:21:33.673Z,19.70
2022-09-12T08:24:35.570Z,19.60
2022-09-12T08:27:03.133Z,19.50
2022-09-12T08:29:30.417Z,19.40
2022-09-12T08:31:57.679Z,19.20
2022-09-12T08:34:25.125Z,19.20
2022-09-12T08:36:54.666Z,19.30
2022-09-12T08:39:22.296Z,19.30
2022-09-12T08:42:03.367Z,19.50
2022-09-12T08:45:16.039Z,19.60
2022-09-12T08:47:47.152Z,19.70
2022-09-12T08:50:20.740Z,19.60
2022-09-12T08:52:50.904Z,19.60
2022-09-12T08:55:36.522Z,19.40
2022-09-12T08:58:27.146Z,19.40
2022-09-12T09:01:30.723Z,19.30
2022-09-12T09:04:28.902Z,19.30
2022-09-12T09:07:37.548Z,19.30
2022-09-12T09:10:31.995Z,19.40
2022-09-12T09:13:42.886Z,19.40
2022-09-12T09:16:35.346Z,19.40
2022-09-12T09:19:23.942Z,19.40
2022-09-12T09:22:07.189Z,19.50
2022-09-12T09:24:44.630Z,19.50
2022-09-12T09:27:39.509Z,19.60
2022-09-12T09:30:19.503Z,19.70
2022-09-12T09:32:54.521Z,19.90
2022-09-12T09:35:47.518Z,20.00
2022-09-12T09:38:49.310Z,20.10
2022-09-12T09:41:52.440Z,20.20
2022-09-12T09:44:19.867Z,20.30
2022-09-12T09:46:53.084Z,20.30
2022-09-12T09:49:21.912Z,20.50
2022-09-12T09:51:49.682Z,20.80
2022-09-12T09:54:22.786Z,21.20
2022-09-12T09:56:51.015Z,21.60
2022-09-12T09:59:35.197Z,22.00
2022-09-12T10:02:14.974Z,22.20
2022-09-12T10:04:55.716Z,22.40
2022-09-12T10:07:25.337Z,22.30
2022-09-12T10:10:22.884Z,22.30
2022-09-12T10:12:50.946Z,22.30
2022-09-12T10:15:28.753Z,22.40
2022-09-12T10:17:58.893Z,22.60
2022-09-12T10:20:46.426Z,22.80
2022-09-12T10:23:37.369Z,23.00
2022-09-12T10:26:13.636Z,23.40
2022-09-12T10:28:48.405Z,23.50
2022-09-12T10:31:29.069Z,23.40
2022-09-12T10:34:01.024Z,23.30
2022-09-12T10:36:40.917Z,23.20
2022-09-12T10:39:20.159Z,23.00
2022-09-12T10:41:47.711Z,23.00
2022-09-12T10:44:27.094Z,23.00
2022-09-12T10:46:55.841Z,23.00
2022-09-12T10:49:29.692Z,22.90
2022-09-12T10:52:18.190Z,22.70
2022-09-12T10:54:45.777Z,22.50
2022-09-12T10:57:57.544Z,22.40
2022-09-12T11:00:28.041Z,22.60
2022-09-12T11:03:25.051Z,22.90
2022-09-12T11:06:01.824Z,23.30
2022-09-12T11:08:46.251Z,23.70
2022-09-12T11:11:43.946Z,24.00
2022-09-12T11:14:50.475Z,24.30
2022-09-12T11:18:04.230Z,24.70
2022-09-12T11:20:58.789Z,24.80
2022-09-12T11:23:49.173Z,24.60
2022-09-12T11:27:07.024Z,24.30
2022-09-12T11:30:04.046Z,24.00
2022-09-12T11:33:00.301Z,23.70
2022-09-12T11:35:34.648Z,23.60
2022-09-12T11:38:50.876Z,23.60
2022-09-12T11:41:26.867Z,23.50
2022-09-12T11:44:28.844Z,23.60
2022-09-12T11:46:56.297Z,23.60
2022-09-12T11:49:36.554Z,23.40
2022-09-12T11:52:20.036Z,23.20
2022-09-12T11:55:12.402Z,23.10
2022-09-12T11:57:54.142Z,23.20
2022-09-12T12:00:33.491Z,23.10
2022-09-12T12:03:15.826Z,23.20
2022-09-12T12:06:04.635Z,23.40
2022-09-12T12:08:41.654Z,23.50
2022-09-12T12:11:12.246Z,23.60
2022-09-12T12:14:05.357Z,23.70
2022-09-12T12:16:42.695Z,23.80
2022-09-12T12:19:34.634Z,24.00
2022-09-12T12:22:28.087Z,24.20
2022-09-12T12:25:06.280Z,24.50
2022-09-12T12:27:52.077Z,24.80
2022-09-12T12:30:31.875Z,25.00
2022-09-12T12:33:11.590Z,25.00
2022-09-12T12:36:10.999Z,24.90
2022-09-12T12:38:41.723Z,24.90
2022-09-12T12:41:18.188Z,24.90
2022-09-12T12:43:51.143Z,24.90
2022-09-12T12:46:28.685Z,24.80
2022-09-12T12:49:28.351Z,24.70
2022-09-12T12:52:01.641Z,24.70
2022-09-12T12:54:49.025Z,24.50
2022-09-12T12:57:22.706Z,24.50
2022-09-12T13:00:30.605Z,24.60
2022-09-12T13:03:00.075Z,24.70
2022-09-12T13:06:12.490Z,24.70
2022-09-12T13:08:55.561Z,24.70
2022-09-12T13:12:04.189Z,24.70
2022-09-12T13:14:45.167Z,24.70
2022-09-12T13:17:45.079Z,24.60
2022-09-12T13:20:35.844Z,24.40
2022-09-12T13:23:10.994Z,24.10
2022-09-12T13:25:38.345Z,24.00
2022-09-12T13:28:11.727Z,23.90
2022-09-12T13:30:55.224Z,23.70
2022-09-12T13:33:43.149Z,23.60
2022-09-12T13:36:50.483Z,23.60
2022-09-12T13:39:49.759Z,23.80
2022-09-12T13:42:40.695Z,23.80
2022-09-12T13:45:24.755Z,23.90
2022-09-12T13:48:04.623Z,24.00
2022-09-12T13:50:42.941Z,24.10
2022-09-12T13:53:22.417Z,24.20
2022-09-12T13:56:00.115Z,24.40
2022-09-12T13:58:34.605Z,24.40
2022-09-12T14:01:17.822Z,24.60
2022-09-12T14:04:14.965Z,24.70
2022-09-12T14:06:53.117Z,24.80
2022-09-12T14:09:35.227Z,25.00
2022-09-12T14:12:03.309Z,25.00
2022-09-12T14:14:36.097Z,25.00
2022-09-12T14:17:42.464Z,24.80
2022-09-12T14:20:18.971Z,24.70
2022-09-12T14:22:51.055Z,24.60
2022-09-12T14:25:23.006Z,24.50
2022-09-12T14:27:57.063Z,24.20
2022-09-12T14:30:30.618Z,24.10
2022-09-12T14:33:12.952Z,23.90
2022-09-12T14:36:08.454Z,23.80
2022-09-12T14:38:45.265Z,23.70
2022-09-12T14:41:22.997Z,23.70
2022-09-12T14:43:55.880Z,23.70
2022-09-12T14:46:42.669Z,23.60
2022-09-12T14:49:27.783Z,23.40
2022-09-12T14:52:00.159Z,23.30
2022-09-12T14:54:34.099Z,23.20
2022-09-12T14:57:19.349Z,23.10
2022-09-12T14:59:46.782Z,23.10
2022-09-12T15:02:14.368Z,23.10
2022-09-12T15:04:45.366Z,23.20
2022-09-12T15:07:39.782Z,23.20
2022-09-12T15:10:28.455Z,23.30
2022-09-12T15:13:12.110Z,23.30
2022-09-12T15:15:45.004Z,23.30
2022-09-12T15:18:14.895Z,23.20
2022-09-12T15:20:46.133Z,23.20
2022-09-12T15:23:40.203Z,23.10
2022-09-12T15:26:15.157Z,23.20
2022-09-12T15:28:42.641Z,23.10
2022-09-12T15:31:43.053Z,23.00
2022-09-12T15:34:10.857Z,23.00
2022-09-12T15:36:38.326Z,23.00
2022-09-12T15:39:05.678Z,23.00
2022-09-12T15:41:38.663Z,22.90
2022-09-12T15:44:11.052Z,22.90
2022-09-12T15:46:39.198Z,22.80
2022-09-12T15:49:10.180Z,22.80
2022-09-12T15:51:40.010Z,22.90
2022-09-12T15:54:15.193Z,22.90
2022-09-12T15:56:42.619Z,22.90
2022-09-12T15:59:10.035Z,22.90
2022-09-12T16:01:37.451Z,22.90
2022-09-12T16:04:35.540Z,22.90
2022-09-12T16:07:02.830Z,22.80
2022-09-12T16:09:30.062Z,22.80
2022-09-12T16:11:57.570Z,22.80
2022-09-12T16:14:24.773Z,22.80
2022-09-12T16:16:56.093Z,22.90
2022-09-12T16:19:23.403Z,22.90
2022-09-12T16:21:50.752Z,22.80
2022-09-12T16:24:17.932Z,22.80
2022-09-12T16:26:45.148Z,22.80
2022-09-12T16:29:14.493Z,22.70
2022-09-12T16:31:41.760Z,22.60
2022-09-12T16:34:11.097Z,22.50
2022-09-12T16:36:38.452Z,22.40
2022-09-12T16:39:06.436Z,22.30
2022-09-12T16:41:35.021Z,22.20
2022-09-12T16:44:02.621Z,22.10
2022-09-12T16:46:35.157Z,22.00
2022-09-12T16:49:02.820Z,22.00
2022-09-12T16:51:37.693Z,21.90
2022-09-12T16:54:05.080Z,21.90
2022-09-12T16:56:32.312Z,21.80
2022-09-12T16:58:59.591Z,21.80
2022-09-12T17:01:27.349Z,21.80
2022-09-12T17:03:59.273Z,21.70
2022-09-12T17:06:28.371Z,21.70
2022-09-12T17:09:00.855Z,21.60
2022-09-12T17:11:38.687Z,21.60
2022-09-12T17:14:08.272Z,21.50
2022-09-12T17:16:46.927Z,21.40
2022-09-12T17:19:21.377Z,21.30
2022-09-12T17:21:50.669Z,21.20
2022-09-12T17:24:20.998Z,21.20
2022-09-12T17:26:48.495Z,21.20
2022-09-12T17:29:16.634Z,21.20
2022-09-12T17:31:47.954Z,21.20
2022-09-12T17:34:16.431Z,21.10
2022-09-12T17:36:45.489Z,21.10
2022-09-12T17:39:14.426Z,21.00
2022-09-12T17:41:43.077Z,20.90
2022-09-12T17:44:13.948Z,20.90
2022-09-12T17:46:42.214Z,20.80
2022-09-12T17:49:15.673Z,20.80
2022-09-12T17:51:45.294Z,20.70
2022-09-12T17:54:16.339Z,20.70
2022-09-12T17:56:46.694Z,20.60
2022-09-12T17:59:21.514Z,20.60
2022-09-12T18:02:10.007Z,20.60
2022-09-12T18:04:37.530Z,20.50
2022-09-12T18:07:06.025Z,20.50
2022-09-12T18:09:33.181Z,20.40
2022-09-12T18:12:00.309Z,20.20
2022-09-12T18:14:28.299Z,19.90
2022-09-12T18:16:57.215Z,19.70
2022-09-12T18:19:24.644Z,19.40
2022-09-12T18:21:53.519Z,19.30
2022-09-12T18:24:21.317Z,19.10
2022-09-12T18:26:49.267Z,18.90
2022-09-12T18:29:20.097Z,18.80
2022-09-12T18:31:47.322Z,18.70
2022-09-12T18:34:15.137Z,18.60
2022-09-12T18:36:45.130Z,18.50
2022-09-12T18:39:13.120Z,18.40
2022-09-12T18:41:40.893Z,18.30
2022-09-12T18:44:09.952Z,18.20
2022-09-12T18:46:37.397Z,18.10
2022-09-12T18:49:07.559Z,18.00
2022-09-12T18:51:36.944Z,18.00
2022-09-12T18:54:08.817Z,18.00
2022-09-12T18:56:38.915Z,17.90
2022-09-12T18:59:07.795Z,17.90
2022-09-12T19:01:37.904Z,17.80
2022-09-12T19:04:07.865Z,17.80
2022-09-12T19:06:40.284Z,17.70
2022-09-12T19:09:09.693Z,17.70
2022-09-12T19:11:40.120Z,17.60
2022-09-12T19:14:07.933Z,17.60
2022-09-12T19:16:36.385Z,17.50
2022-09-12T19:19:03.892Z,17.50
2022-09-12T19:21:31.886Z,17.50
2022-09-12T19:24:01.752Z,17.40
2022-09-12T19:26:29.492Z,17.30
2022-09-12T19:28:57.121Z,17.20
2022-09-12T19:31:25.408Z,17.10
2022-09-12T19:33:52.815Z,17.10
2022-09-12T19:36:43.723Z,17.00
2022-09-12T19:39:08.964Z,17.00
2022-09-12T19:41:36.318Z,16.90
2022-09-12T19:44:05.027Z,16.90
2022-09-12T19:46:32.315Z,16.80
2022-09-12T19:49:00.559Z,16.80
2022-09-12T19:51:27.846Z,16.70
2022-09-12T19:53:55.079Z,16.70
2022-09-12T19:56:22.618Z,16.70
2022-09-12T19:58:55.780Z,16.60
2022-09-12T20:01:28.363Z,16.50
2022-09-12T20:03:59.246Z,16.50
2022-09-12T20:06:26.937Z,16.40
2022-09-12T20:08:54.830Z,16.40
2022-09-12T20:11:23.784Z,16.40
2022-09-12T20:13:51.868Z,16.40
2022-09-12T20:16:29.554Z,16.30
2022-09-12T20:19:00.634Z,16.30
2022-09-12T20:21:34.200Z,16.20
2022-09-12T20:24:14.042Z,16.20
2022-09-12T20:26:41.374Z,16.20
2022-09-12T20:29:08.988Z,16.10
2022-09-12T20:31:38.032Z,16.10
2022-09-12T20:34:06.037Z,16.10
2022-09-12T20:36:34.038Z,16.10
2022-09-12T20:39:02.525Z,16.00
2022-09-12T20:41:31.940Z,16.00
2022-09-12T20:43:59.118Z,16.00
2022-09-12T20:46:30.269Z,15.90
2022-09-12T20:48:58.628Z,15.90
2022-09-12T20:51:26.877Z,15.90
2022-09-12T20:53:58.204Z,15.90
2022-09-12T20:56:27.773Z,15.80
2022-09-12T20:58:56.050Z,15.80
2022-09-12T21:01:25.401Z,15.80
2022-09-12T21:03:53.069Z,15.70
2022-09-12T21:06:20.797Z,15.70
2022-09-12T21:08:49.085Z,15.70
2022-09-12T21:11:18.325Z,15.70
2022-09-12T21:13:45.859Z,15.60
2022-09-12T21:16:18.200Z,15.60
2022-09-12T21:18:45.728Z,15.60
2022-09-12T21:21:15.033Z,15.50
2022-09-12T21:23:42.299Z,15.50
2022-09-12T21:26:09.747Z,15.50
2022-09-12T21:28:37.166Z,15.50
2022-09-12T21:31:04.754Z,15.40
2022-09-12T21:33:32.017Z,15.40
2022-09-12T21:36:04.732Z,15.40
2022-09-12T21:38:32.610Z,15.40
2022-09-12T21:41:08.151Z,15.30
2022-09-12T21:43:35.950Z,15.30
2022-09-12T21:46:04.024Z,15.30
2022-09-12T21:48:31.373Z,15.30
2022-09-12T21:50:59.092Z,15.30
2022-09-12T21:53:27.365Z,15.30
2022-09-12T21:55:54.826Z,15.20
2022-09-12T21:58:21.900Z,15.20
2022-09-12T22:00:49.321Z,15.20
2022-09-12T22:03:17.568Z,15.20
2022-09-12T22:05:44.769Z,15.20
2022-09-12T22:08:12.272Z,15.20
2022-09-12T22:10:40.295Z,15.20
2022-09-12T22:13:08.158Z,15.20
2022-09-12T22:15:40.406Z,15.30
2022-09-12T22:18:08.033Z,15.30
2022-09-12T22:20:35.353Z,15.30
2022-09-12T22:23:24.535Z,15.30
2022-09-12T22:25:56.266Z,15.30
2022-09-12T22:28:24.537Z,15.30
2022-09-12T22:30:54.473Z,15.30
2022-09-12T22:33:22.195Z,15.30
2022-09-12T22:35:49.440Z,15.30
2022-09-12T22:38:16.663Z,15.30
2022-09-12T22:40:44.308Z,15.30
2022-09-12T22:43:11.916Z,15.20
2022-09-12T22:45:41.972Z,15.20
2022-09-12T22:48:09.482Z,15.20
2022-09-12T22:50:36.812Z,15.20
2022-09-12T22:53:04.807Z,15.20
2022-09-12T22:55:32.366Z,15.20
2022-09-12T22:57:59.725Z,15.10
2022-09-12T23:00:28.064Z,15.10
2022-09-12T23:02:55.707Z,15.10
2022-09-12T23:05:23.049Z,15.10
2022-09-12T23:07:51.095Z,15.00
2022-09-12T23:10:18.426Z,15.00
2022-09-12T23:12:45.770Z,15.00
2022-09-12T23:15:13.140Z,15.00
2022-09-12T23:17:40.596Z,15.00
2022-09-12T23:20:08.451Z,14.90
2022-09-12T23:22:37.497Z,15.00
2022-09-12T23:25:05.278Z,15.00
2022-09-12T23:27:32.871Z,15.00
2022-09-12T23:30:01.363Z,15.00
2022-09-12T23:32:28.716Z,15.00
2022-09-12T23:34:55.899Z,15.00
2022-09-12T23:37:23.193Z,15.00
2022-09-12T23:39:50.495Z,15.00
2022-09-12T23:42:18.069Z,15.00
2022-09-12T23:44:45.304Z,14.90
2022-09-12T23:47:12.858Z,14.90
2022-09-12T23:49:39.965Z,14.90
2022-09-12T23:52:07.092Z,14.90
2022-09-12T23:54:34.149Z,14.80
2022-09-12T23:57:01.248Z,14.70
2022-09-12T23:59:28.299Z,14.70
